createdAt,value
2023-05-20T09:26:43.126Z,22.30
2023-05-20T09:31:48.489Z,22.10
2023-05-20T09:36:52.655Z,19.60
2023-05-20T09:41:59.760Z,19.40
2023-05-20T09:47:08.613Z,19.60
2023-05-20T09:52:13.486Z,19.70
2023-05-20T09:57:16.863Z,19.40
2023-05-20T10:02:22.106Z,19.50
2023-05-20T10:07:57.825Z,19.10
2023-05-20T10:13:11.459Z,19.20
2023-05-20T10:18:30.057Z,19.50
2023-05-20T10:23:33.362Z,19.50
2023-05-20T10:28:38.183Z,19.60
2023-05-20T10:33:45.344Z,19.50
2023-05-20T10:38:56.636Z,19.60
2023-05-20T10:44:04.281Z,19.60
2023-05-20T10:49:22.419Z,19.70
2023-05-20T10:54:29.111Z,19.60
2023-05-20T10:59:32.477Z,19.80
2023-05-20T11:04:37.536Z,19.60
2023-05-20T11:09:41.042Z,19.80
2023-05-20T11:14:44.553Z,19.60
2023-05-20T11:19:49.620Z,19.40
2023-05-20T11:24:53.037Z,19.50
2023-05-20T11:29:56.475Z,19.70
2023-05-20T11:35:01.743Z,19.60
2023-05-20T11:40:09.434Z,19.60
2023-05-20T11:45:15.291Z,19.40
2023-05-20T11:50:21.457Z,19.50
2023-05-20T11:55:24.909Z,19.20
2023-05-20T12:00:31.258Z,19.20
2023-05-20T12:05:41.186Z,19.50
2023-05-20T12:10:45.356Z,19.40
2023-05-20T12:15:48.961Z,19.70
2023-05-20T12:20:53.760Z,19.70
2023-05-20T12:25:56.996Z,19.30
2023-05-20T12:31:01.003Z,19.80
2023-05-20T12:36:07.249Z,19.80
2023-05-20T12:41:10.612Z,19.80
2023-05-20T12:46:13.847Z,19.60
2023-05-20T12:56:24.884Z,19.80
2023-05-20T13:01:28.237Z,19.70
2023-05-20T13:06:33.326Z,19.90
2023-05-20T13:11:36.572Z,20.10
2023-05-20T13:16:40.189Z,19.70
2023-05-20T13:21:44.820Z,19.80
2023-05-20T13:26:48.170Z,19.90
2023-05-20T13:31:51.464Z,19.90
2023-05-20T13:36:56.009Z,20.20
2023-05-20T13:42:00.192Z,19.90
2023-05-20T13:47:03.558Z,19.80
2023-05-20T13:52:08.576Z,19.90
2023-05-20T13:57:12.049Z,20.20
2023-05-20T14:02:15.312Z,20.00
2023-05-20T14:07:20.074Z,19.70
2023-05-20T14:12:24.378Z,19.80
2023-05-20T14:17:27.944Z,19.90
2023-05-20T14:22:32.576Z,19.80
2023-05-20T14:27:36.268Z,19.80
2023-05-20T14:32:39.774Z,20.10
2023-05-20T14:37:44.462Z,20.00
2023-05-20T14:42:47.932Z,19.70
2023-05-20T14:47:51.466Z,19.80
2023-05-20T14:52:57.574Z,19.90
2023-05-20T14:58:00.924Z,20.00
2023-05-20T15:03:04.397Z,20.20
2023-05-20T15:08:09.045Z,20.20
2023-05-20T15:13:12.486Z,20.20
2023-05-20T15:18:16.384Z,20.10
2023-05-20T15:23:21.128Z,20.10
2023-05-20T15:28:24.332Z,20.20
2023-05-20T15:33:27.777Z,20.40
2023-05-20T15:38:32.914Z,20.20
2023-05-20T15:43:36.289Z,19.80
2023-05-20T15:48:39.673Z,20.00
2023-05-20T15:53:44.319Z,20.00
2023-05-20T15:58:47.649Z,19.90
2023-05-20T16:03:51.090Z,20.10
2023-05-20T16:08:55.785Z,20.00
2023-05-20T16:13:59.064Z,20.00
2023-05-20T16:19:02.539Z,20.00
2023-05-20T16:24:07.964Z,19.90
2023-05-20T16:29:11.263Z,20.00
2023-05-20T16:34:15.259Z,19.90
2023-05-20T16:39:19.956Z,19.80
2023-05-20T16:44:23.287Z,19.80
2023-05-20T16:49:26.596Z,19.80
2023-05-20T16:54:31.245Z,19.60
2023-05-20T16:59:35.026Z,19.60
2023-05-20T17:04:38.449Z,19.40
2023-05-20T17:09:43.112Z,19.30
2023-05-20T17:14:46.571Z,19.40
2023-05-20T17:19:49.864Z,19.50
2023-05-20T17:24:54.743Z,19.40
2023-05-20T17:29:59.284Z,19.10
2023-05-20T17:35:02.727Z,19.10
2023-05-20T17:40:08.567Z,19.10
2023-05-20T17:45:12.767Z,19.00
2023-05-20T17:50:16.721Z,18.90
2023-05-20T17:55:22.081Z,18.70
2023-05-20T18:00:26.593Z,18.80
2023-05-20T18:05:30.177Z,18.60
2023-05-20T18:10:34.955Z,18.70
2023-05-20T18:15:38.379Z,18.50
2023-05-20T18:20:41.985Z,18.50
2023-05-20T18:40:59.758Z,18.50
2023-05-20T18:46:03.120Z,18.20
2023-05-20T18:51:06.472Z,18.10
2023-05-20T18:56:11.626Z,17.90
2023-05-20T19:01:14.975Z,17.90
2023-05-20T19:06:18.795Z,17.80
2023-05-20T19:11:23.378Z,17.60
2023-05-20T19:16:27.077Z,17.50
2023-05-20T19:21:30.891Z,17.40
2023-05-20T19:26:35.629Z,17.40
2023-05-20T19:31:42.987Z,17.30
2023-05-20T19:36:47.894Z,17.20
2023-05-20T19:54:54.418Z,17.00
2023-05-20T19:59:57.904Z,17.00
2023-05-20T20:05:02.621Z,17.00
2023-05-20T20:10:16.743Z,17.00
2023-05-20T20:15:20.712Z,16.90
2023-05-20T20:20:26.546Z,17.00
2023-05-20T20:25:34.924Z,17.10
2023-05-20T20:30:38.644Z,17.00
2023-05-20T20:35:43.221Z,17.00
2023-05-20T20:40:47.200Z,16.90
2023-05-20T20:45:53.154Z,16.90
2023-05-20T20:50:59.111Z,16.80
2023-05-20T20:56:02.431Z,16.90
2023-05-20T21:01:06.032Z,16.80
2023-05-20T21:06:13.015Z,16.80
2023-05-20T21:11:17.778Z,16.70
2023-05-20T21:16:21.255Z,16.60
2023-05-20T21:21:25.946Z,16.60
2023-05-20T21:26:29.158Z,16.60
2023-05-20T21:31:32.609Z,16.50
2023-05-20T21:36:37.216Z,16.50
2023-05-20T21:41:40.603Z,16.50
2023-05-20T21:46:44.081Z,16.50
2023-05-20T21:51:48.754Z,16.40
2023-05-20T21:56:51.890Z,16.40
2023-05-20T22:01:56.244Z,16.40
2023-05-20T22:07:01.321Z,16.30
2023-05-20T22:12:04.936Z,16.30
2023-05-20T22:17:08.346Z,16.20
2023-05-20T22:22:12.898Z,16.20
2023-05-20T22:27:16.196Z,16.10
2023-05-20T22:32:19.385Z,16.00
2023-05-20T22:37:23.994Z,15.90
2023-05-20T22:42:27.199Z,15.80
2023-05-20T22:47:30.509Z,15.80
2023-05-20T22:52:36.856Z,15.80
2023-05-20T22:57:40.040Z,15.60
2023-05-20T23:02:45.713Z,15.60
2023-05-20T23:07:52.675Z,15.60
2023-05-20T23:12:55.927Z,15.60
2023-05-20T23:17:59.136Z,15.40
2023-05-20T23:23:10.870Z,15.60
2023-05-20T23:28:14.554Z,15.50
2023-05-20T23:33:22.934Z,15.60
2023-05-20T23:38:30.505Z,15.50
2023-05-20T23:43:33.645Z,15.40
2023-05-20T23:48:37.118Z,15.30
2023-05-20T23:53:42.589Z,15.30
2023-05-20T23:58:45.869Z,15.30
